createdAt,value
2023-02-22T00:01:19.314Z,101433.88
2023-02-22T00:06:25.055Z,101432.41
2023-02-22T00:11:27.619Z,101418.84
2023-02-22T00:16:30.981Z,101424.41
2023-02-22T00:21:34.819Z,101411.41
2023-02-22T00:26:37.309Z,101415.44
2023-02-22T00:31:40.100Z,101422.66
2023-02-22T00:36:47.592Z,101413.41
2023-02-22T00:41:50.427Z,101411.16
2023-02-22T00:46:53.005Z,101414.75
2023-02-22T00:51:56.825Z,101409.00
2023-02-22T00:56:59.413Z,101413.78
2023-02-22T01:02:01.926Z,101419.47
2023-02-22T01:07:05.930Z,101416.00
2023-02-22T01:12:08.974Z,101424.66
2023-02-22T01:17:11.447Z,101421.63
2023-02-22T01:22:15.241Z,101414.75
2023-02-22T01:27:19.019Z,101421.47
2023-02-22T01:32:21.550Z,101420.00
2023-02-22T01:37:25.340Z,101420.06
2023-02-22T01:42:29.392Z,101416.84
2023-02-22T01:47:31.839Z,101412.63
2023-02-22T01:52:35.672Z,101409.31
2023-02-22T01:57:39.003Z,101412.88
2023-02-22T02:02:45.238Z,101402.41
2023-02-22T02:07:49.380Z,101400.75
2023-02-22T02:12:54.134Z,101399.84
2023-02-22T02:18:00.657Z,101397.25
2023-02-22T02:23:25.553Z,101392.41
2023-02-22T02:28:45.451Z,101401.56
2023-02-22T02:33:57.957Z,101393.06
2023-02-22T02:39:06.555Z,101399.47
2023-02-22T02:44:14.502Z,101399.94
2023-02-22T02:49:23.194Z,101394.91
2023-02-22T02:54:26.409Z,101391.88
2023-02-22T02:59:30.919Z,101392.34
2023-02-22T03:04:49.836Z,101386.72
2023-02-22T03:10:03.761Z,101392.97
2023-02-22T03:15:18.693Z,101388.09
2023-02-22T03:20:31.750Z,101385.66
2023-02-22T03:25:39.535Z,101382.78
2023-02-22T03:30:46.433Z,101391.50
2023-02-22T03:35:56.666Z,101394.25
2023-02-22T03:41:02.581Z,101392.72
2023-02-22T03:46:07.521Z,101382.06
2023-02-22T03:51:16.698Z,101391.38
2023-02-22T03:56:25.120Z,101379.75
2023-02-22T04:01:28.117Z,101386.50
2023-02-22T04:06:32.144Z,101388.16
2023-02-22T04:11:34.624Z,101392.13
2023-02-22T04:16:37.114Z,101392.72
2023-02-22T04:21:40.942Z,101394.72
2023-02-22T04:26:43.411Z,101389.38
2023-02-22T04:31:45.940Z,101394.88
2023-02-22T04:36:49.806Z,101400.66
2023-02-22T04:41:52.303Z,101397.31
2023-02-22T04:46:54.865Z,101397.00
2023-02-22T04:51:58.724Z,101395.78
2023-02-22T04:57:01.198Z,101397.59
2023-02-22T05:02:03.953Z,101401.84
2023-02-22T05:07:07.749Z,101396.22
2023-02-22T05:12:10.601Z,101405.81
2023-02-22T05:17:13.517Z,101408.69
2023-02-22T05:22:17.642Z,101400.47
2023-02-22T05:27:20.404Z,101403.19
2023-02-22T05:32:22.901Z,101399.19
2023-02-22T05:37:26.791Z,101397.06
2023-02-22T05:42:29.275Z,101395.72
2023-02-22T05:47:31.789Z,101392.19
2023-02-22T05:52:35.669Z,101385.97
2023-02-22T05:57:38.164Z,101385.81
2023-02-22T06:02:40.635Z,101393.41
2023-02-22T06:07:44.430Z,101394.00
2023-02-22T06:12:47.201Z,101396.44
2023-02-22T06:17:50.436Z,101397.78
2023-02-22T06:22:57.624Z,101405.09
2023-02-22T06:28:01.806Z,101407.09
2023-02-22T06:33:04.511Z,101413.16
2023-02-22T06:38:08.339Z,101419.88
2023-02-22T06:43:11.087Z,101430.72
2023-02-22T06:48:13.779Z,101433.97
2023-02-22T06:53:17.566Z,101436.72
2023-02-22T06:58:20.023Z,101430.63
2023-02-22T07:03:22.762Z,101448.63
2023-02-22T07:08:26.595Z,101439.06
2023-02-22T07:13:29.600Z,101439.22
2023-02-22T07:18:32.098Z,101455.53
2023-02-22T07:23:36.972Z,101448.56
2023-02-22T07:28:39.435Z,101464.28
2023-02-22T07:33:42.038Z,101459.06
2023-02-22T07:38:46.413Z,101463.31
2023-02-22T07:43:48.913Z,101462.56
2023-02-22T07:48:51.385Z,101456.75
2023-02-22T07:53:55.215Z,101468.38
2023-02-22T07:58:57.723Z,101465.44
2023-02-22T08:04:00.270Z,101466.47
2023-02-22T08:09:04.158Z,101465.97
2023-02-22T08:14:06.648Z,101458.72
2023-02-22T08:19:09.128Z,101458.81
2023-02-22T08:36:36.471Z,101445.81
2023-02-22T08:41:38.958Z,101434.78
2023-02-22T08:46:41.449Z,101425.56
2023-02-22T08:51:45.258Z,101420.19
2023-02-22T08:56:47.747Z,101427.31
2023-02-22T09:01:50.266Z,101434.84
2023-02-22T09:06:54.079Z,101433.47
2023-02-22T09:11:56.571Z,101426.97
2023-02-22T09:16:59.048Z,101425.47
2023-02-22T09:22:03.061Z,101429.50
2023-02-22T09:27:07.316Z,101432.59
2023-02-22T09:32:09.916Z,101434.75
2023-02-22T09:37:14.746Z,101424.84
2023-02-22T09:42:25.854Z,101428.09
2023-02-22T09:47:39.793Z,101414.97
2023-02-22T09:52:53.898Z,101410.94
2023-02-22T09:57:58.914Z,101409.41
2023-02-22T10:03:24.235Z,101403.88
2023-02-22T10:08:33.240Z,101401.06
2023-02-22T10:13:49.483Z,101399.22
2023-02-22T10:19:08.264Z,101397.63
2023-02-22T10:24:23.490Z,101396.13
2023-02-22T10:29:33.604Z,101391.09
2023-02-22T10:34:42.272Z,101388.53
2023-02-22T10:39:49.299Z,101378.94
2023-02-22T10:44:51.898Z,101379.66
2023-02-22T10:49:57.541Z,101373.94
2023-02-22T10:55:14.566Z,101367.44
2023-02-22T11:00:26.138Z,101367.16
2023-02-22T11:05:32.531Z,101357.66
2023-02-22T11:10:38.633Z,101353.84
2023-02-22T11:15:41.135Z,101356.38
2023-02-22T11:20:43.639Z,101349.63
2023-02-22T11:25:49.050Z,101344.81
2023-02-22T11:30:52.902Z,101338.16
2023-02-22T11:35:59.282Z,101327.94
2023-02-22T11:41:18.258Z,101326.19
2023-02-22T11:46:23.480Z,101332.25
2023-02-22T11:51:38.161Z,101327.69
2023-02-22T11:56:46.830Z,101317.09
2023-02-22T12:01:55.393Z,101313.22
2023-02-22T12:07:15.374Z,101301.38
2023-02-22T12:12:25.935Z,101298.31
2023-02-22T12:17:43.699Z,101301.16
2023-02-22T12:22:55.906Z,101305.78
2023-02-22T12:28:09.994Z,101301.00
2023-02-22T12:33:18.109Z,101301.00
2023-02-22T12:38:25.179Z,101300.81
2023-02-22T12:43:33.539Z,101300.91
2023-02-22T12:48:45.611Z,101300.81
2023-02-22T12:53:56.564Z,101301.63
2023-02-22T12:59:05.407Z,101297.38
2023-02-22T13:04:20.114Z,101282.84
2023-02-22T13:09:42.996Z,101282.75
2023-02-22T13:21:21.647Z,101272.84
2023-02-22T13:26:30.939Z,101259.88
2023-02-22T13:31:47.309Z,101252.41
2023-02-22T13:37:09.718Z,101252.41
2023-02-22T13:42:30.467Z,101248.00
2023-02-22T13:47:50.676Z,101257.31
2023-02-22T13:52:57.435Z,101244.69
2023-02-22T13:58:04.069Z,101244.22
2023-02-22T14:03:08.977Z,101237.16
2023-02-22T14:08:41.998Z,101231.00
2023-02-22T14:14:12.143Z,101230.16
2023-02-22T14:19:17.770Z,101230.69
2023-02-22T14:24:21.732Z,101232.88
2023-02-22T14:29:25.569Z,101222.19
2023-02-22T14:34:42.707Z,101224.59
2023-02-22T14:39:51.274Z,101220.44
2023-02-22T14:45:00.576Z,101223.91
2023-02-22T14:50:09.310Z,101216.03
2023-02-22T14:55:22.909Z,101216.13
2023-02-22T15:00:31.504Z,101217.53
2023-02-22T15:05:39.210Z,101217.72
2023-02-22T15:10:45.706Z,101206.53
2023-02-22T15:15:49.995Z,101197.34
2023-02-22T15:20:57.513Z,101209.66
2023-02-22T15:26:02.634Z,101201.59
2023-02-22T15:31:25.670Z,101205.81
2023-02-22T15:36:31.050Z,101209.03
2023-02-22T15:41:36.017Z,101209.84
2023-02-22T15:46:39.595Z,101208.63
2023-02-22T15:51:46.363Z,101198.13
2023-02-22T15:56:55.496Z,101199.97
2023-02-22T16:01:59.577Z,101205.41
2023-02-22T16:07:16.765Z,101203.28
2023-02-22T16:12:28.335Z,101208.41
2023-02-22T16:17:36.894Z,101208.13
2023-02-22T16:22:40.716Z,101216.38
2023-02-22T16:27:48.208Z,101213.91
2023-02-22T16:32:50.730Z,101222.88
2023-02-22T16:37:57.298Z,101215.88
2023-02-22T16:43:03.052Z,101213.84
2023-02-22T16:48:15.534Z,101214.00
2023-02-22T16:53:20.596Z,101218.38
2023-02-22T16:58:27.812Z,101218.06
2023-02-22T17:03:30.364Z,101212.50
2023-02-22T17:08:32.875Z,101226.06
2023-02-22T17:13:36.760Z,101214.56
2023-02-22T17:18:40.700Z,101211.72
2023-02-22T17:23:45.788Z,101207.78
2023-02-22T17:28:49.752Z,101208.03
2023-02-22T17:33:52.320Z,101218.75
2023-02-22T17:38:54.959Z,101221.09
2023-02-22T17:43:58.895Z,101214.97
2023-02-22T17:49:01.809Z,101224.44
2023-02-22T17:54:04.703Z,101227.75
2023-02-22T17:59:09.133Z,101222.94
2023-02-22T18:04:11.721Z,101220.56
2023-02-22T18:09:17.630Z,101223.06
2023-02-22T18:14:21.514Z,101205.53
2023-02-22T18:19:24.004Z,101210.75
2023-02-22T18:24:26.630Z,101213.59
2023-02-22T18:29:30.440Z,101217.81
2023-02-22T18:34:33.521Z,101212.50
2023-02-22T18:39:42.625Z,101206.09
2023-02-22T18:44:46.434Z,101217.38
2023-02-22T18:49:49.638Z,101212.63
2023-02-22T18:54:52.153Z,101205.22
2023-02-22T18:59:57.846Z,101206.91
2023-02-22T19:05:00.404Z,101193.81
2023-02-22T19:10:03.372Z,101195.53
2023-02-22T19:15:07.887Z,101193.72
2023-02-22T19:20:11.043Z,101184.75
2023-02-22T19:25:13.549Z,101185.66
2023-02-22T19:30:17.668Z,101183.81
2023-02-22T19:35:26.967Z,101183.97
2023-02-22T19:40:30.136Z,101173.50
2023-02-22T19:45:33.954Z,101174.41
2023-02-22T19:50:44.705Z,101166.44
2023-02-22T19:55:47.169Z,101161.53
2023-02-22T20:00:51.058Z,101167.44
2023-02-22T20:05:57.737Z,101164.81
2023-02-22T20:11:00.288Z,101164.13
2023-02-22T20:16:04.401Z,101166.75
2023-02-22T20:21:09.455Z,101162.34
2023-02-22T20:26:16.767Z,101172.09
2023-02-22T20:31:22.077Z,101169.47
2023-02-22T20:36:25.146Z,101171.41
2023-02-22T20:41:29.692Z,101176.75
2023-02-22T20:46:36.037Z,101169.47
2023-02-22T20:51:40.339Z,101166.53
2023-02-22T20:56:45.457Z,101168.59
2023-02-22T21:01:50.106Z,101175.19
2023-02-22T21:06:52.970Z,101171.22
2023-02-22T21:11:56.159Z,101171.78
2023-02-22T21:17:03.093Z,101162.91
2023-02-22T21:22:08.321Z,101162.91
2023-02-22T21:27:12.132Z,101160.97
2023-02-22T21:32:16.459Z,101157.56
2023-02-22T21:37:19.311Z,101159.63
2023-02-22T21:42:21.794Z,101152.91
2023-02-22T21:47:25.764Z,101148.69
2023-02-22T21:52:28.235Z,101145.41
2023-02-22T21:57:30.987Z,101150.84
2023-02-22T22:02:38.064Z,101143.09
2023-02-22T22:07:41.433Z,101130.25
2023-02-22T22:12:46.072Z,101127.81
2023-02-22T22:17:50.075Z,101126.47
2023-02-22T22:22:52.751Z,101127.78
2023-02-22T22:27:56.084Z,101121.34
2023-02-22T22:32:59.886Z,101132.19
2023-02-22T22:38:02.821Z,101124.50
2023-02-22T22:43:05.970Z,101121.41
2023-02-22T22:48:14.688Z,101115.81
2023-02-22T22:53:17.853Z,101114.00
2023-02-22T22:58:20.316Z,101113.78
2023-02-22T23:03:24.829Z,101109.09
2023-02-22T23:08:29.226Z,101101.28
2023-02-22T23:13:31.744Z,101105.69
2023-02-22T23:18:36.258Z,101107.16
2023-02-22T23:23:39.233Z,101101.72
2023-02-22T23:28:42.734Z,101104.97
2023-02-22T23:33:49.031Z,101104.75
2023-02-22T23:38:51.504Z,101102.69
2023-02-22T23:43:54.004Z,101113.66
2023-02-22T23:49:01.610Z,101113.31
2023-02-22T23:54:05.985Z,101112.53
2023-02-22T23:59:11.191Z,101104.31
